sensor_id;sensor_type;location;lat;lon;timestamp;P1;durP1;ratioP1;P2;durP2;ratioP2
42632;SDS011;28261;53.304;-6.284;2023-07-20T00:00:59;6.28;;;2.67;;
42632;SDS011;28261;53.304;-6.284;2023-07-20T00:03:13;4.53;;;2.42;;
42632;SDS011;28261;53.304;-6.284;2023-07-20T00:05:21;5.75;;;2.50;;
42632;SDS011;28261;53.304;-6.284;2023-07-20T00:07:26;6.97;;;2.40;;
42632;SDS011;28261;53.304;-6.284;2023-07-20T00:09:30;5.28;;;2.30;;
42632;SDS011;28261;53.304;-6.284;2023-07-20T00:11:35;5.30;;;1.90;;
42632;SDS011;28261;53.304;-6.284;2023-07-20T00:13:40;3.33;;;2.00;;
42632;SDS011;28261;53.304;-6.284;2023-07-20T00:15:44;3.58;;;2.08;;
42632;SDS011;28261;53.304;-6.284;2023-07-20T00:17:48;5.57;;;2.33;;
42632;SDS011;28261;53.304;-6.284;2023-07-20T00:19:53;3.83;;;2.22;;
42632;SDS011;28261;53.304;-6.284;2023-07-20T00:21:56;4.05;;;2.45;;
42632;SDS011;28261;53.304;-6.284;2023-07-20T00:24:01;3.45;;;2.38;;
42632;SDS011;28261;53.304;-6.284;2023-07-20T00:26:04;3.70;;;1.90;;
42632;SDS011;28261;53.304;-6.284;2023-07-20T00:28:08;4.70;;;2.13;;
42632;SDS011;28261;53.304;-6.284;2023-07-20T00:30:12;2.97;;;2.00;;
42632;SDS011;28261;53.304;-6.284;2023-07-20T00:32:17;3.42;;;2.10;;
42632;SDS011;28261;53.304;-6.284;2023-07-20T00:34:21;3.35;;;2.03;;
42632;SDS011;28261;53.304;-6.284;2023-07-20T00:36:26;4.05;;;2.15;;
42632;SDS011;28261;53.304;-6.284;2023-07-20T00:40:35;3.78;;;1.92;;
42632;SDS011;28261;53.304;-6.284;2023-07-20T00:42:40;6.85;;;2.85;;
42632;SDS011;28261;53.304;-6.284;2023-07-20T00:44:43;4.25;;;2.03;;
42632;SDS011;28261;53.304;-6.284;2023-07-20T00:46:47;5.47;;;2.28;;
42632;SDS011;28261;53.304;-6.284;2023-07-20T00:48:51;4.05;;;2.30;;
42632;SDS011;28261;53.304;-6.284;2023-07-20T00:50:55;3.88;;;2.15;;
42632;SDS011;28261;53.304;-6.284;2023-07-20T00:53:04;3.65;;;2.13;;
42632;SDS011;28261;53.304;-6.284;2023-07-20T00:55:08;3.55;;;1.95;;
42632;SDS011;28261;53.304;-6.284;2023-07-20T00:57:12;4.63;;;2.00;;
42632;SDS011;28261;53.304;-6.284;2023-07-20T00:59:18;6.20;;;2.40;;
42632;SDS011;28261;53.304;-6.284;2023-07-20T01:01:22;3.70;;;1.83;;
42632;SDS011;28261;53.304;-6.284;2023-07-20T01:03:24;3.65;;;2.00;;
42632;SDS011;28261;53.304;-6.284;2023-07-20T01:05:33;3.70;;;2.45;;
42632;SDS011;28261;53.304;-6.284;2023-07-20T01:07:46;3.28;;;2.13;;
42632;SDS011;28261;53.304;-6.284;2023-07-20T01:09:59;4.82;;;2.50;;
42632;SDS011;28261;53.304;-6.284;2023-07-20T01:12:09;4.10;;;2.10;;
42632;SDS011;28261;53.304;-6.284;2023-07-20T01:14:23;4.18;;;2.53;;
42632;SDS011;28261;53.304;-6.284;2023-07-20T01:16:27;4.68;;;2.35;;
42632;SDS011;28261;53.304;-6.284;2023-07-20T01:18:30;4.05;;;2.17;;
42632;SDS011;28261;53.304;-6.284;2023-07-20T01:20:35;4.22;;;2.10;;
42632;SDS011;28261;53.304;-6.284;2023-07-20T01:22:47;3.40;;;1.95;;
42632;SDS011;28261;53.304;-6.284;2023-07-20T01:25:24;5.80;;;2.17;;
42632;SDS011;28261;53.304;-6.284;2023-07-20T01:30:25;4.10;;;2.30;;
42632;SDS011;28261;53.304;-6.284;2023-07-20T01:32:48;4.60;;;2.20;;
42632;SDS011;28261;53.304;-6.284;2023-07-20T01:34:55;3.95;;;2.35;;
42632;SDS011;28261;53.304;-6.284;2023-07-20T01:37:01;3.33;;;1.95;;
42632;SDS011;28261;53.304;-6.284;2023-07-20T01:45:17;10.75;;;2.75;;
42632;SDS011;28261;53.304;-6.284;2023-07-20T01:47:21;4.72;;;2.40;;
42632;SDS011;28261;53.304;-6.284;2023-07-20T01:49:26;4.15;;;1.83;;
42632;SDS011;28261;53.304;-6.284;2023-07-20T01:51:30;3.92;;;2.13;;
42632;SDS011;28261;53.304;-6.284;2023-07-20T01:53:34;3.83;;;2.63;;
42632;SDS011;28261;53.304;-6.284;2023-07-20T01:55:36;5.15;;;2.00;;
42632;SDS011;28261;53.304;-6.284;2023-07-20T01:57:40;5.10;;;2.70;;
42632;SDS011;28261;53.304;-6.284;2023-07-20T01:59:43;5.00;;;2.15;;
42632;SDS011;28261;53.304;-6.284;2023-07-20T02:01:47;5.60;;;2.20;;
42632;SDS011;28261;53.304;-6.284;2023-07-20T02:03:51;4.03;;;2.45;;
42632;SDS011;28261;53.304;-6.284;2023-07-20T02:05:57;4.38;;;2.42;;
42632;SDS011;28261;53.304;-6.284;2023-07-20T02:08:00;3.78;;;2.13;;
42632;SDS011;28261;53.304;-6.284;2023-07-20T02:10:04;4.38;;;2.38;;
42632;SDS011;28261;53.304;-6.284;2023-07-20T02:12:09;2.97;;;1.60;;
42632;SDS011;28261;53.304;-6.284;2023-07-20T02:14:13;3.25;;;2.15;;
42632;SDS011;28261;53.304;-6.284;2023-07-20T02:16:16;4.07;;;2.25;;
42632;SDS011;28261;53.304;-6.284;2023-07-20T02:18:21;5.22;;;2.55;;
42632;SDS011;28261;53.304;-6.284;2023-07-20T02:20:25;4.30;;;2.30;;
42632;SDS011;28261;53.304;-6.284;2023-07-20T02:22:30;5.32;;;2.17;;
42632;SDS011;28261;53.304;-6.284;2023-07-20T02:24:34;4.18;;;2.20;;
42632;SDS011;28261;53.304;-6.284;2023-07-20T02:26:37;4.22;;;2.35;;
42632;SDS011;28261;53.304;-6.284;2023-07-20T02:28:41;6.05;;;2.75;;
42632;SDS011;28261;53.304;-6.284;2023-07-20T02:30:46;4.25;;;2.25;;
42632;SDS011;28261;53.304;-6.284;2023-07-20T02:32:54;3.30;;;2.10;;
42632;SDS011;28261;53.304;-6.284;2023-07-20T02:35:00;7.30;;;2.38;;
42632;SDS011;28261;53.304;-6.284;2023-07-20T02:37:07;5.03;;;2.40;;
42632;SDS011;28261;53.304;-6.284;2023-07-20T02:39:14;4.05;;;2.13;;
42632;SDS011;28261;53.304;-6.284;2023-07-20T02:41:17;2.90;;;2.03;;
42632;SDS011;28261;53.304;-6.284;2023-07-20T02:43:21;3.78;;;2.03;;
42632;SDS011;28261;53.304;-6.284;2023-07-20T02:45:24;4.47;;;2.40;;
42632;SDS011;28261;53.304;-6.284;2023-07-20T02:47:29;3.63;;;2.30;;
42632;SDS011;28261;53.304;-6.284;2023-07-20T02:49:33;3.53;;;1.95;;
42632;SDS011;28261;53.304;-6.284;2023-07-20T02:51:37;3.85;;;1.90;;
42632;SDS011;28261;53.304;-6.284;2023-07-20T02:53:41;5.55;;;2.65;;
42632;SDS011;28261;53.304;-6.284;2023-07-20T02:55:46;4.35;;;2.08;;
42632;SDS011;28261;53.304;-6.284;2023-07-20T02:57:50;4.05;;;2.13;;
42632;SDS011;28261;53.304;-6.284;2023-07-20T02:59:53;3.28;;;1.95;;
42632;SDS011;28261;53.304;-6.284;2023-07-20T03:01:58;5.20;;;2.35;;
42632;SDS011;28261;53.304;-6.284;2023-07-20T03:04:02;8.23;;;2.63;;
42632;SDS011;28261;53.304;-6.284;2023-07-20T03:06:07;3.92;;;2.13;;
42632;SDS011;28261;53.304;-6.284;2023-07-20T03:08:12;4.97;;;2.05;;
42632;SDS011;28261;53.304;-6.284;2023-07-20T03:10:16;4.70;;;2.40;;
42632;SDS011;28261;53.304;-6.284;2023-07-20T03:12:20;3.63;;;1.77;;
42632;SDS011;28261;53.304;-6.284;2023-07-20T03:14:25;4.35;;;2.78;;
42632;SDS011;28261;53.304;-6.284;2023-07-20T03:18:35;5.22;;;2.78;;
42632;SDS011;28261;53.304;-6.284;2023-07-20T03:20:39;5.15;;;2.33;;
42632;SDS011;28261;53.304;-6.284;2023-07-20T03:22:42;5.13;;;2.53;;
42632;SDS011;28261;53.304;-6.284;2023-07-20T03:24:47;3.30;;;2.15;;
42632;SDS011;28261;53.304;-6.284;2023-07-20T03:26:52;3.40;;;2.00;;
42632;SDS011;28261;53.304;-6.284;2023-07-20T03:28:58;5.60;;;1.98;;
42632;SDS011;28261;53.304;-6.284;2023-07-20T03:31:02;6.13;;;2.47;;
42632;SDS011;28261;53.304;-6.284;2023-07-20T03:33:08;4.63;;;2.30;;
42632;SDS011;28261;53.304;-6.284;2023-07-20T03:35:12;4.55;;;2.10;;
42632;SDS011;28261;53.304;-6.284;2023-07-20T03:37:17;4.03;;;1.75;;
42632;SDS011;28261;53.304;-6.284;2023-07-20T03:39:22;3.53;;;1.83;;
42632;SDS011;28261;53.304;-6.284;2023-07-20T03:41:26;4.35;;;2.22;;
42632;SDS011;28261;53.304;-6.284;2023-07-20T03:43:30;3.88;;;2.00;;
42632;SDS011;28261;53.304;-6.284;2023-07-20T03:45:37;4.00;;;2.45;;
42632;SDS011;28261;53.304;-6.284;2023-07-20T03:47:40;3.20;;;1.80;;
42632;SDS011;28261;53.304;-6.284;2023-07-20T03:49:44;3.25;;;1.95;;
42632;SDS011;28261;53.304;-6.284;2023-07-20T03:51:49;4.78;;;2.38;;
42632;SDS011;28261;53.304;-6.284;2023-07-20T03:53:54;4.13;;;1.98;;
42632;SDS011;28261;53.304;-6.284;2023-07-20T03:55:58;3.72;;;2.22;;
42632;SDS011;28261;53.304;-6.284;2023-07-20T03:58:01;5.35;;;2.03;;
42632;SDS011;28261;53.304;-6.284;2023-07-20T04:00:06;3.72;;;2.00;;
42632;SDS011;28261;53.304;-6.284;2023-07-20T04:02:15;3.05;;;1.90;;
42632;SDS011;28261;53.304;-6.284;2023-07-20T04:04:19;5.05;;;2.25;;
42632;SDS011;28261;53.304;-6.284;2023-07-20T04:06:23;3.78;;;2.20;;
42632;SDS011;28261;53.304;-6.284;2023-07-20T04:08:27;3.13;;;2.13;;
42632;SDS011;28261;53.304;-6.284;2023-07-20T04:10:31;4.03;;;2.08;;
42632;SDS011;28261;53.304;-6.284;2023-07-20T04:12:35;4.85;;;1.90;;
42632;SDS011;28261;53.304;-6.284;2023-07-20T04:14:38;3.30;;;2.10;;
42632;SDS011;28261;53.304;-6.284;2023-07-20T04:16:42;5.60;;;2.42;;
42632;SDS011;28261;53.304;-6.284;2023-07-20T04:18:47;5.68;;;2.20;;
42632;SDS011;28261;53.304;-6.284;2023-07-20T04:20:49;2.83;;;1.73;;
42632;SDS011;28261;53.304;-6.284;2023-07-20T04:22:53;4.35;;;2.15;;
42632;SDS011;28261;53.304;-6.284;2023-07-20T04:24:58;4.93;;;2.22;;
42632;SDS011;28261;53.304;-6.284;2023-07-20T04:27:00;3.42;;;1.95;;
42632;SDS011;28261;53.304;-6.284;2023-07-20T04:29:05;3.90;;;2.53;;
42632;SDS011;28261;53.304;-6.284;2023-07-20T04:31:14;3.88;;;2.17;;
42632;SDS011;28261;53.304;-6.284;2023-07-20T04:37:55;3.50;;;1.98;;
42632;SDS011;28261;53.304;-6.284;2023-07-20T04:40:01;4.65;;;2.13;;
42632;SDS011;28261;53.304;-6.284;2023-07-20T04:42:05;4.55;;;2.42;;
42632;SDS011;28261;53.304;-6.284;2023-07-20T04:44:09;3.45;;;2.42;;
42632;SDS011;28261;53.304;-6.284;2023-07-20T04:46:13;4.43;;;2.47;;
42632;SDS011;28261;53.304;-6.284;2023-07-20T04:48:17;5.15;;;2.53;;
42632;SDS011;28261;53.304;-6.284;2023-07-20T04:50:25;5.70;;;2.83;;
42632;SDS011;28261;53.304;-6.284;2023-07-20T04:52:31;3.83;;;2.28;;
42632;SDS011;28261;53.304;-6.284;2023-07-20T04:54:47;5.18;;;2.40;;
42632;SDS011;28261;53.304;-6.284;2023-07-20T04:56:51;5.88;;;2.40;;
42632;SDS011;28261;53.304;-6.284;2023-07-20T04:58:56;4.53;;;2.50;;
42632;SDS011;28261;53.304;-6.284;2023-07-20T05:01:01;4.90;;;2.75;;
42632;SDS011;28261;53.304;-6.284;2023-07-20T05:03:08;5.93;;;3.00;;
42632;SDS011;28261;53.304;-6.284;2023-07-20T05:05:13;6.13;;;3.03;;
42632;SDS011;28261;53.304;-6.284;2023-07-20T05:07:17;6.35;;;2.92;;
42632;SDS011;28261;53.304;-6.284;2023-07-20T05:09:22;6.97;;;3.22;;
42632;SDS011;28261;53.304;-6.284;2023-07-20T05:11:26;6.22;;;3.63;;
42632;SDS011;28261;53.304;-6.284;2023-07-20T05:13:31;5.25;;;2.85;;
42632;SDS011;28261;53.304;-6.284;2023-07-20T05:15:34;6.75;;;2.92;;
42632;SDS011;28261;53.304;-6.284;2023-07-20T05:19:43;5.28;;;2.53;;
42632;SDS011;28261;53.304;-6.284;2023-07-20T05:21:48;4.93;;;2.85;;
42632;SDS011;28261;53.304;-6.284;2023-07-20T05:23:51;5.72;;;2.90;;
42632;SDS011;28261;53.304;-6.284;2023-07-20T05:25:56;5.50;;;2.20;;
42632;SDS011;28261;53.304;-6.284;2023-07-20T05:28:01;5.68;;;2.72;;
42632;SDS011;28261;53.304;-6.284;2023-07-20T05:30:05;6.75;;;3.03;;
42632;SDS011;28261;53.304;-6.284;2023-07-20T05:32:10;5.72;;;2.88;;
42632;SDS011;28261;53.304;-6.284;2023-07-20T05:34:15;8.10;;;3.47;;
42632;SDS011;28261;53.304;-6.284;2023-07-20T05:40:25;6.18;;;2.72;;
42632;SDS011;28261;53.304;-6.284;2023-07-20T05:42:30;4.07;;;2.38;;
42632;SDS011;28261;53.304;-6.284;2023-07-20T05:44:34;5.43;;;2.80;;
42632;SDS011;28261;53.304;-6.284;2023-07-20T05:46:42;5.13;;;2.47;;
42632;SDS011;28261;53.304;-6.284;2023-07-20T05:48:58;5.35;;;3.42;;
42632;SDS011;28261;53.304;-6.284;2023-07-20T05:51:02;5.45;;;3.05;;
42632;SDS011;28261;53.304;-6.284;2023-07-20T05:53:05;5.30;;;2.85;;
42632;SDS011;28261;53.304;-6.284;2023-07-20T05:55:10;5.78;;;2.78;;
42632;SDS011;28261;53.304;-6.284;2023-07-20T05:57:15;4.78;;;2.60;;
42632;SDS011;28261;53.304;-6.284;2023-07-20T05:59:21;8.77;;;2.88;;
42632;SDS011;28261;53.304;-6.284;2023-07-20T06:01:26;6.60;;;3.70;;
42632;SDS011;28261;53.304;-6.284;2023-07-20T06:03:30;5.97;;;2.90;;
42632;SDS011;28261;53.304;-6.284;2023-07-20T06:05:32;6.22;;;3.30;;
42632;SDS011;28261;53.304;-6.284;2023-07-20T06:07:36;8.70;;;3.30;;
42632;SDS011;28261;53.304;-6.284;2023-07-20T06:09:40;7.13;;;2.97;;
42632;SDS011;28261;53.304;-6.284;2023-07-20T06:11:44;5.85;;;3.00;;
42632;SDS011;28261;53.304;-6.284;2023-07-20T06:13:47;6.22;;;2.70;;
42632;SDS011;28261;53.304;-6.284;2023-07-20T06:15:55;7.05;;;3.03;;
42632;SDS011;28261;53.304;-6.284;2023-07-20T06:17:59;4.47;;;2.60;;
42632;SDS011;28261;53.304;-6.284;2023-07-20T06:20:03;7.40;;;3.17;;
42632;SDS011;28261;53.304;-6.284;2023-07-20T06:22:09;6.78;;;2.53;;
42632;SDS011;28261;53.304;-6.284;2023-07-20T06:24:12;6.57;;;3.03;;
42632;SDS011;28261;53.304;-6.284;2023-07-20T06:26:16;6.88;;;3.47;;
42632;SDS011;28261;53.304;-6.284;2023-07-20T06:28:22;6.30;;;2.78;;
42632;SDS011;28261;53.304;-6.284;2023-07-20T06:30:27;4.43;;;2.58;;
42632;SDS011;28261;53.304;-6.284;2023-07-20T06:32:32;7.28;;;3.45;;
42632;SDS011;28261;53.304;-6.284;2023-07-20T06:34:36;6.57;;;3.00;;
42632;SDS011;28261;53.304;-6.284;2023-07-20T06:36:40;6.97;;;3.35;;
42632;SDS011;28261;53.304;-6.284;2023-07-20T06:38:44;7.35;;;3.05;;
42632;SDS011;28261;53.304;-6.284;2023-07-20T06:40:52;7.78;;;3.97;;
42632;SDS011;28261;53.304;-6.284;2023-07-20T06:42:57;10.30;;;4.28;;
42632;SDS011;28261;53.304;-6.284;2023-07-20T06:45:04;8.80;;;4.68;;
42632;SDS011;28261;53.304;-6.284;2023-07-20T06:47:08;10.13;;;4.22;;
42632;SDS011;28261;53.304;-6.284;2023-07-20T06:49:25;13.07;;;5.22;;
42632;SDS011;28261;53.304;-6.284;2023-07-20T06:51:29;10.80;;;4.97;;
42632;SDS011;28261;53.304;-6.284;2023-07-20T06:53:32;9.65;;;4.35;;
42632;SDS011;28261;53.304;-6.284;2023-07-20T06:55:37;9.77;;;4.68;;
42632;SDS011;28261;53.304;-6.284;2023-07-20T06:57:44;12.10;;;4.82;;
42632;SDS011;28261;53.304;-6.284;2023-07-20T06:59:50;9.75;;;4.22;;
42632;SDS011;28261;53.304;-6.284;2023-07-20T07:01:53;10.80;;;4.90;;
42632;SDS011;28261;53.304;-6.284;2023-07-20T07:03:57;11.32;;;4.70;;
42632;SDS011;28261;53.304;-6.284;2023-07-20T07:06:03;12.50;;;5.18;;
42632;SDS011;28261;53.304;-6.284;2023-07-20T07:08:07;13.02;;;6.05;;
42632;SDS011;28261;53.304;-6.284;2023-07-20T07:10:11;11.35;;;4.72;;
42632;SDS011;28261;53.304;-6.284;2023-07-20T07:12:14;9.20;;;4.78;;
42632;SDS011;28261;53.304;-6.284;2023-07-20T07:14:24;10.40;;;4.20;;
42632;SDS011;28261;53.304;-6.284;2023-07-20T07:16:31;8.15;;;3.97;;
42632;SDS011;28261;53.304;-6.284;2023-07-20T07:18:39;10.00;;;4.22;;
42632;SDS011;28261;53.304;-6.284;2023-07-20T07:20:49;10.30;;;4.93;;
42632;SDS011;28261;53.304;-6.284;2023-07-20T07:22:54;10.07;;;4.53;;
42632;SDS011;28261;53.304;-6.284;2023-07-20T07:24:58;8.88;;;4.15;;
42632;SDS011;28261;53.304;-6.284;2023-07-20T07:27:02;10.25;;;4.57;;
42632;SDS011;28261;53.304;-6.284;2023-07-20T07:29:06;10.77;;;4.82;;
42632;SDS011;28261;53.304;-6.284;2023-07-20T07:31:10;11.02;;;5.28;;
42632;SDS011;28261;53.304;-6.284;2023-07-20T07:33:14;10.38;;;4.78;;
42632;SDS011;28261;53.304;-6.284;2023-07-20T07:35:18;8.93;;;4.72;;
42632;SDS011;28261;53.304;-6.284;2023-07-20T07:37:22;12.38;;;6.10;;
42632;SDS011;28261;53.304;-6.284;2023-07-20T07:39:27;10.55;;;5.50;;
42632;SDS011;28261;53.304;-6.284;2023-07-20T07:41:34;11.32;;;5.88;;
42632;SDS011;28261;53.304;-6.284;2023-07-20T07:43:37;10.45;;;5.00;;
42632;SDS011;28261;53.304;-6.284;2023-07-20T07:45:41;11.45;;;5.22;;
42632;SDS011;28261;53.304;-6.284;2023-07-20T07:47:45;11.30;;;5.07;;
42632;SDS011;28261;53.304;-6.284;2023-07-20T07:49:48;8.25;;;4.68;;
42632;SDS011;28261;53.304;-6.284;2023-07-20T07:51:52;9.60;;;4.68;;
42632;SDS011;28261;53.304;-6.284;2023-07-20T07:53:56;9.48;;;5.07;;
42632;SDS011;28261;53.304;-6.284;2023-07-20T07:56:01;9.25;;;4.40;;
42632;SDS011;28261;53.304;-6.284;2023-07-20T07:58:04;9.32;;;5.25;;
42632;SDS011;28261;53.304;-6.284;2023-07-20T08:00:09;9.20;;;5.10;;
42632;SDS011;28261;53.304;-6.284;2023-07-20T08:02:16;10.88;;;5.40;;
42632;SDS011;28261;53.304;-6.284;2023-07-20T08:04:19;10.18;;;5.43;;
42632;SDS011;28261;53.304;-6.284;2023-07-20T08:06:23;9.18;;;5.05;;
42632;SDS011;28261;53.304;-6.284;2023-07-20T08:08:27;12.23;;;5.47;;
42632;SDS011;28261;53.304;-6.284;2023-07-20T08:10:32;10.50;;;6.20;;
42632;SDS011;28261;53.304;-6.284;2023-07-20T08:12:37;10.95;;;5.88;;
42632;SDS011;28261;53.304;-6.284;2023-07-20T08:14:41;11.40;;;5.47;;
42632;SDS011;28261;53.304;-6.284;2023-07-20T08:16:44;8.57;;;5.00;;
42632;SDS011;28261;53.304;-6.284;2023-07-20T08:20:53;9.13;;;5.30;;
42632;SDS011;28261;53.304;-6.284;2023-07-20T08:22:57;12.50;;;5.75;;
42632;SDS011;28261;53.304;-6.284;2023-07-20T08:25:01;9.45;;;5.13;;
42632;SDS011;28261;53.304;-6.284;2023-07-20T08:27:05;10.50;;;5.35;;
42632;SDS011;28261;53.304;-6.284;2023-07-20T08:29:10;10.82;;;5.75;;
42632;SDS011;28261;53.304;-6.284;2023-07-20T08:31:13;10.02;;;5.75;;
42632;SDS011;28261;53.304;-6.284;2023-07-20T08:33:17;10.27;;;5.55;;
42632;SDS011;28261;53.304;-6.284;2023-07-20T08:35:22;9.98;;;5.57;;
42632;SDS011;28261;53.304;-6.284;2023-07-20T08:37:24;9.98;;;4.90;;
42632;SDS011;28261;53.304;-6.284;2023-07-20T08:39:28;8.18;;;5.20;;
42632;SDS011;28261;53.304;-6.284;2023-07-20T08:41:32;9.02;;;5.10;;
42632;SDS011;28261;53.304;-6.284;2023-07-20T08:43:37;8.80;;;5.30;;
42632;SDS011;28261;53.304;-6.284;2023-07-20T08:45:46;8.88;;;5.70;;
42632;SDS011;28261;53.304;-6.284;2023-07-20T08:47:53;9.40;;;5.38;;
42632;SDS011;28261;53.304;-6.284;2023-07-20T08:49:59;9.10;;;4.95;;
42632;SDS011;28261;53.304;-6.284;2023-07-20T08:52:04;10.50;;;5.38;;
42632;SDS011;28261;53.304;-6.284;2023-07-20T08:54:08;9.05;;;5.30;;
42632;SDS011;28261;53.304;-6.284;2023-07-20T08:56:15;9.27;;;5.00;;
42632;SDS011;28261;53.304;-6.284;2023-07-20T08:58:20;9.88;;;5.22;;
42632;SDS011;28261;53.304;-6.284;2023-07-20T09:00:24;8.77;;;4.70;;
42632;SDS011;28261;53.304;-6.284;2023-07-20T09:02:29;8.77;;;4.75;;
42632;SDS011;28261;53.304;-6.284;2023-07-20T09:04:37;6.85;;;3.95;;
42632;SDS011;28261;53.304;-6.284;2023-07-20T09:06:41;7.57;;;4.57;;
42632;SDS011;28261;53.304;-6.284;2023-07-20T09:08:46;7.18;;;4.43;;
42632;SDS011;28261;53.304;-6.284;2023-07-20T09:10:50;8.18;;;4.07;;
42632;SDS011;28261;53.304;-6.284;2023-07-20T09:12:53;7.97;;;4.15;;
42632;SDS011;28261;53.304;-6.284;2023-07-20T09:14:58;6.65;;;4.57;;
42632;SDS011;28261;53.304;-6.284;2023-07-20T09:17:02;8.07;;;4.63;;
42632;SDS011;28261;53.304;-6.284;2023-07-20T09:19:07;8.45;;;4.78;;
42632;SDS011;28261;53.304;-6.284;2023-07-20T09:21:11;9.52;;;4.35;;
42632;SDS011;28261;53.304;-6.284;2023-07-20T09:23:14;7.68;;;4.53;;
42632;SDS011;28261;53.304;-6.284;2023-07-20T09:25:20;7.57;;;4.30;;
42632;SDS011;28261;53.304;-6.284;2023-07-20T09:27:34;9.55;;;4.97;;
42632;SDS011;28261;53.304;-6.284;2023-07-20T09:29:47;7.68;;;4.13;;
42632;SDS011;28261;53.304;-6.284;2023-07-20T09:32:01;6.95;;;4.13;;
42632;SDS011;28261;53.304;-6.284;2023-07-20T09:34:07;6.95;;;3.65;;
42632;SDS011;28261;53.304;-6.284;2023-07-20T09:36:11;6.70;;;3.92;;
42632;SDS011;28261;53.304;-6.284;2023-07-20T09:38:35;8.55;;;3.90;;
42632;SDS011;28261;53.304;-6.284;2023-07-20T09:40:42;7.65;;;4.45;;
42632;SDS011;28261;53.304;-6.284;2023-07-20T09:42:48;9.73;;;4.55;;
42632;SDS011;28261;53.304;-6.284;2023-07-20T09:44:58;7.53;;;3.58;;
42632;SDS011;28261;53.304;-6.284;2023-07-20T09:47:03;7.65;;;3.92;;
42632;SDS011;28261;53.304;-6.284;2023-07-20T09:49:09;6.78;;;3.70;;
42632;SDS011;28261;53.304;-6.284;2023-07-20T09:51:15;6.57;;;3.42;;
42632;SDS011;28261;53.304;-6.284;2023-07-20T09:53:23;8.10;;;3.95;;
42632;SDS011;28261;53.304;-6.284;2023-07-20T09:55:28;8.82;;;4.60;;
42632;SDS011;28261;53.304;-6.284;2023-07-20T09:57:33;8.07;;;4.03;;
42632;SDS011;28261;53.304;-6.284;2023-07-20T09:59:37;10.43;;;4.25;;
42632;SDS011;28261;53.304;-6.284;2023-07-20T10:01:41;8.93;;;4.18;;
42632;SDS011;28261;53.304;-6.284;2023-07-20T10:03:47;10.88;;;4.65;;
42632;SDS011;28261;53.304;-6.284;2023-07-20T10:05:54;7.85;;;4.28;;
42632;SDS011;28261;53.304;-6.284;2023-07-20T10:08:00;8.35;;;4.68;;
42632;SDS011;28261;53.304;-6.284;2023-07-20T10:10:10;8.27;;;4.55;;
42632;SDS011;28261;53.304;-6.284;2023-07-20T10:12:14;8.77;;;4.75;;
42632;SDS011;28261;53.304;-6.284;2023-07-20T10:14:20;7.30;;;4.00;;
42632;SDS011;28261;53.304;-6.284;2023-07-20T10:18:30;8.93;;;4.57;;
42632;SDS011;28261;53.304;-6.284;2023-07-20T10:20:39;7.40;;;4.10;;
42632;SDS011;28261;53.304;-6.284;2023-07-20T10:23:05;7.03;;;3.60;;
42632;SDS011;28261;53.304;-6.284;2023-07-20T10:25:09;8.13;;;4.30;;
42632;SDS011;28261;53.304;-6.284;2023-07-20T10:27:12;7.55;;;3.63;;
42632;SDS011;28261;53.304;-6.284;2023-07-20T10:29:16;8.05;;;4.13;;
42632;SDS011;28261;53.304;-6.284;2023-07-20T10:31:22;8.85;;;4.57;;
42632;SDS011;28261;53.304;-6.284;2023-07-20T10:33:25;8.40;;;4.25;;
42632;SDS011;28261;53.304;-6.284;2023-07-20T10:35:29;7.47;;;4.15;;
42632;SDS011;28261;53.304;-6.284;2023-07-20T10:37:46;6.32;;;3.85;;
42632;SDS011;28261;53.304;-6.284;2023-07-20T10:39:52;7.50;;;4.25;;
42632;SDS011;28261;53.304;-6.284;2023-07-20T10:42:01;8.43;;;4.18;;
42632;SDS011;28261;53.304;-6.284;2023-07-20T10:44:07;7.85;;;3.72;;
42632;SDS011;28261;53.304;-6.284;2023-07-20T10:46:12;7.05;;;3.80;;
42632;SDS011;28261;53.304;-6.284;2023-07-20T10:48:17;8.77;;;4.40;;
42632;SDS011;28261;53.304;-6.284;2023-07-20T10:50:21;8.82;;;4.13;;
42632;SDS011;28261;53.304;-6.284;2023-07-20T10:52:24;10.63;;;4.05;;
42632;SDS011;28261;53.304;-6.284;2023-07-20T10:54:49;9.18;;;4.88;;
42632;SDS011;28261;53.304;-6.284;2023-07-20T10:56:55;7.22;;;4.47;;
42632;SDS011;28261;53.304;-6.284;2023-07-20T10:59:00;8.88;;;4.97;;
42632;SDS011;28261;53.304;-6.284;2023-07-20T11:01:04;10.10;;;5.45;;
42632;SDS011;28261;53.304;-6.284;2023-07-20T11:03:08;9.90;;;5.22;;
42632;SDS011;28261;53.304;-6.284;2023-07-20T11:07:38;10.43;;;5.28;;
42632;SDS011;28261;53.304;-6.284;2023-07-20T11:11:50;9.88;;;5.05;;
42632;SDS011;28261;53.304;-6.284;2023-07-20T11:14:22;12.38;;;5.72;;
42632;SDS011;28261;53.304;-6.284;2023-07-20T11:16:40;11.32;;;5.68;;
42632;SDS011;28261;53.304;-6.284;2023-07-20T11:18:45;12.07;;;5.60;;
42632;SDS011;28261;53.304;-6.284;2023-07-20T11:22:54;8.70;;;5.07;;
42632;SDS011;28261;53.304;-6.284;2023-07-20T11:24:58;9.55;;;5.40;;
42632;SDS011;28261;53.304;-6.284;2023-07-20T11:27:02;8.95;;;4.93;;
42632;SDS011;28261;53.304;-6.284;2023-07-20T11:29:06;9.55;;;5.20;;
42632;SDS011;28261;53.304;-6.284;2023-07-20T11:31:27;9.68;;;4.95;;
42632;SDS011;28261;53.304;-6.284;2023-07-20T11:33:31;9.95;;;4.82;;
42632;SDS011;28261;53.304;-6.284;2023-07-20T11:35:35;9.88;;;5.38;;
42632;SDS011;28261;53.304;-6.284;2023-07-20T11:37:44;9.88;;;5.35;;
42632;SDS011;28261;53.304;-6.284;2023-07-20T11:39:48;7.80;;;4.75;;
42632;SDS011;28261;53.304;-6.284;2023-07-20T11:41:53;8.82;;;5.10;;
42632;SDS011;28261;53.304;-6.284;2023-07-20T11:43:58;9.70;;;5.20;;
42632;SDS011;28261;53.304;-6.284;2023-07-20T11:46:01;9.85;;;5.00;;
42632;SDS011;28261;53.304;-6.284;2023-07-20T11:50:17;8.65;;;5.45;;
42632;SDS011;28261;53.304;-6.284;2023-07-20T11:52:22;7.93;;;4.82;;
42632;SDS011;28261;53.304;-6.284;2023-07-20T11:54:26;9.27;;;4.55;;
42632;SDS011;28261;53.304;-6.284;2023-07-20T11:56:31;7.60;;;4.28;;
42632;SDS011;28261;53.304;-6.284;2023-07-20T11:58:33;10.00;;;5.10;;
42632;SDS011;28261;53.304;-6.284;2023-07-20T12:00:38;8.98;;;5.10;;
42632;SDS011;28261;53.304;-6.284;2023-07-20T12:02:42;8.30;;;4.60;;
42632;SDS011;28261;53.304;-6.284;2023-07-20T12:04:47;8.45;;;4.68;;
42632;SDS011;28261;53.304;-6.284;2023-07-20T12:06:53;7.75;;;3.95;;
42632;SDS011;28261;53.304;-6.284;2023-07-20T12:08:57;5.82;;;3.83;;
42632;SDS011;28261;53.304;-6.284;2023-07-20T12:11:02;8.30;;;4.63;;
42632;SDS011;28261;53.304;-6.284;2023-07-20T12:13:04;7.10;;;5.13;;
42632;SDS011;28261;53.304;-6.284;2023-07-20T12:15:13;8.27;;;4.10;;
42632;SDS011;28261;53.304;-6.284;2023-07-20T12:17:18;8.50;;;4.85;;
42632;SDS011;28261;53.304;-6.284;2023-07-20T12:19:24;6.50;;;4.50;;
42632;SDS011;28261;53.304;-6.284;2023-07-20T12:21:30;7.68;;;4.50;;
42632;SDS011;28261;53.304;-6.284;2023-07-20T12:23:35;9.27;;;5.20;;
42632;SDS011;28261;53.304;-6.284;2023-07-20T12:25:39;8.90;;;4.78;;
42632;SDS011;28261;53.304;-6.284;2023-07-20T12:27:44;8.48;;;4.80;;
42632;SDS011;28261;53.304;-6.284;2023-07-20T12:29:48;8.30;;;4.65;;
42632;SDS011;28261;53.304;-6.284;2023-07-20T12:31:52;8.55;;;5.43;;
42632;SDS011;28261;53.304;-6.284;2023-07-20T12:33:57;8.52;;;5.05;;
42632;SDS011;28261;53.304;-6.284;2023-07-20T12:36:01;9.38;;;4.55;;
42632;SDS011;28261;53.304;-6.284;2023-07-20T12:38:06;10.32;;;5.13;;
42632;SDS011;28261;53.304;-6.284;2023-07-20T12:40:10;7.05;;;4.35;;
42632;SDS011;28261;53.304;-6.284;2023-07-20T12:42:13;8.93;;;5.25;;
42632;SDS011;28261;53.304;-6.284;2023-07-20T12:44:18;9.60;;;5.45;;
42632;SDS011;28261;53.304;-6.284;2023-07-20T12:46:22;8.43;;;4.32;;
42632;SDS011;28261;53.304;-6.284;2023-07-20T12:48:27;8.55;;;4.63;;
42632;SDS011;28261;53.304;-6.284;2023-07-20T12:50:31;9.02;;;4.93;;
42632;SDS011;28261;53.304;-6.284;2023-07-20T12:52:35;8.68;;;4.50;;
42632;SDS011;28261;53.304;-6.284;2023-07-20T12:54:41;8.35;;;4.75;;
42632;SDS011;28261;53.304;-6.284;2023-07-20T12:56:45;9.05;;;4.53;;
42632;SDS011;28261;53.304;-6.284;2023-07-20T12:58:51;9.50;;;4.90;;
42632;SDS011;28261;53.304;-6.284;2023-07-20T13:00:55;8.15;;;4.72;;